Meteo Giornale » Osservazioni meteo Brasile » Anapolis Braz-Afb
ore: 04:00 - Osservazioni Meteo Anapolis Braz-Afb
Lat. 16° 14' S Lon. 48° 58' W Alt. 1137 metri s.l.m.
21 °C
Sereno
Temp. 24 Ore
21 °C
34 °C
Sud
7.4 Km/h
Dew point 12 °C
Umidità 56 %
Visibilità 10 Km
Il sole sorge alle ore 06:21
Il sole tramonta alle ore 18:09
| Data e Ora | Cielo e Fenomeni | T °C | DP °C | Um. % | Pres. hPa | Vis. km | Vento km/h | |
|---|---|---|---|---|---|---|---|---|
| Oggi h: 04:00 | Sereno | 21 | 12 | 56 | 1020 | 10 | S 7.4 | |
| Oggi h: 03:00 | Sereno | 21 | 11 | 52 | 1019 | 10 | O 7.4 | |
| Oggi h: 02:00 | Sereno | 21 | 11 | 52 | 1019 | 10 | O/NO 7.4 | |
| Oggi h: 01:00 | Sereno | 22 | 11 | 49 | 1019 | 10 | O 7.4 | |
| Oggi h: 00:00 | Sereno | 22 | 11 | 49 | 1019 | 10 | NO 9.3 | |
| Ieri h: 23:00 | Sereno | 22 | 11 | 49 | 1019 | 10 | NO 9.3 | |
| Ieri h: 22:00 | Sereno | 22 | 11 | 49 | 1018 | 10 | NO 7.4 | |
| Ieri h: 21:00 | Sereno | 22 | 11 | 49 | 1018 | 10 | N 5.5 | |
| Ieri h: 20:00 | Sereno | 23 | 11 | 46 | 1017 | 10 | N 5.5 | |
| Ieri h: 19:00 | Sereno | 24 | 11 | 43 | 1017 | 10 | N 3.7 | |
| Ieri h: 18:00 | Sereno | 29 | 10 | 30 | 1017 | 10 | N 3.7 | |
| Ieri h: 17:00 | Poco Nuvoloso | 32 | 9 | 24 | 1016 | 10 | N/NO 13 | |
| Ieri h: 16:00 | Nuvoloso | 33 | 9 | 22 | 1016 | 10 | N 11.1 | |
| Ieri h: 15:00 | Nuvoloso | 32 | 10 | 25 | 1016 | 10 | N/NE 14.8 | |
| Ieri h: 14:00 | Nuvoloso | 32 | 9 | 24 | 1017 | 10 | N 16.7 | |
| Ieri h: 13:00 | Nuvoloso | 34 | 10 | 23 | 1018 | 10 | N 16.7 | |
| Ieri h: 12:00 | Poco Nuvoloso | 33 | 9 | 22 | 1019 | 10 | N 14.8 | |
| Ieri h: 11:00 | Sereno | 32 | 10 | 25 | 1020 | 10 | N 13 | |
| Ieri h: 10:00 | Sereno | 30 | 10 | 28 | 1020 | 10 | N 16.7 | |
| Ieri h: 09:00 | Sereno | 28 | 11 | 34 | 1020 | 10 | N 14.8 | |
| Ieri h: 08:00 | Sereno | 26 | 10 | 36 | 1020 | 10 | N/NE 11.1 | |
| Ieri h: 07:00 | Sereno | 24 | 11 | 43 | 1019 | 10 | N 7.4 | |
| Ieri h: 06:00 | Sereno | 22 | 14 | 60 | 1020 | 10 | N 3.7 | |



